sensor_id;sensor_type;location;lat;lon;timestamp;P1;durP1;ratioP1;P2;durP2;ratioP2
2858;SDS011;1437;53.250;10.406;2023-02-01T00:00:08;15.40;;;4.20;;
2858;SDS011;1437;53.250;10.406;2023-02-01T00:02:37;13.27;;;2.83;;
2858;SDS011;1437;53.250;10.406;2023-02-01T00:05:06;10.30;;;2.40;;
2858;SDS011;1437;53.250;10.406;2023-02-01T00:07:34;9.60;;;3.30;;
2858;SDS011;1437;53.250;10.406;2023-02-01T00:10:09;12.27;;;3.10;;
2858;SDS011;1437;53.250;10.406;2023-02-01T00:12:40;12.70;;;1.90;;
2858;SDS011;1437;53.250;10.406;2023-02-01T00:15:10;18.47;;;2.60;;
2858;SDS011;1437;53.250;10.406;2023-02-01T00:17:38;12.07;;;2.47;;
2858;SDS011;1437;53.250;10.406;2023-02-01T00:20:10;4.63;;;2.17;;
2858;SDS011;1437;53.250;10.406;2023-02-01T00:22:37;17.00;;;3.53;;
2858;SDS011;1437;53.250;10.406;2023-02-01T00:25:05;16.53;;;2.73;;
2858;SDS011;1437;53.250;10.406;2023-02-01T00:27:35;12.43;;;4.77;;
2858;SDS011;1437;53.250;10.406;2023-02-01T00:30:08;15.30;;;3.40;;
2858;SDS011;1437;53.250;10.406;2023-02-01T00:32:36;17.07;;;3.00;;
2858;SDS011;1437;53.250;10.406;2023-02-01T00:35:07;20.97;;;3.43;;
2858;SDS011;1437;53.250;10.406;2023-02-01T00:37:35;14.80;;;3.17;;
2858;SDS011;1437;53.250;10.406;2023-02-01T00:40:03;20.17;;;5.13;;
2858;SDS011;1437;53.250;10.406;2023-02-01T00:42:31;11.37;;;2.77;;
2858;SDS011;1437;53.250;10.406;2023-02-01T00:45:02;14.80;;;2.50;;
2858;SDS011;1437;53.250;10.406;2023-02-01T00:47:29;27.17;;;3.10;;
2858;SDS011;1437;53.250;10.406;2023-02-01T00:49:57;13.57;;;3.70;;
2858;SDS011;1437;53.250;10.406;2023-02-01T00:52:25;14.47;;;2.90;;
2858;SDS011;1437;53.250;10.406;2023-02-01T00:54:53;10.40;;;2.57;;
2858;SDS011;1437;53.250;10.406;2023-02-01T00:57:20;9.20;;;3.30;;
2858;SDS011;1437;53.250;10.406;2023-02-01T00:59:48;17.73;;;3.80;;
2858;SDS011;1437;53.250;10.406;2023-02-01T01:02:17;12.13;;;2.37;;
2858;SDS011;1437;53.250;10.406;2023-02-01T01:04:45;18.23;;;3.50;;
2858;SDS011;1437;53.250;10.406;2023-02-01T01:07:12;10.23;;;2.13;;
2858;SDS011;1437;53.250;10.406;2023-02-01T01:09:40;16.67;;;3.10;;
2858;SDS011;1437;53.250;10.406;2023-02-01T01:12:08;21.97;;;2.57;;
2858;SDS011;1437;53.250;10.406;2023-02-01T01:14:36;11.37;;;2.40;;
2858;SDS011;1437;53.250;10.406;2023-02-01T01:17:03;13.07;;;2.70;;
2858;SDS011;1437;53.250;10.406;2023-02-01T01:19:33;30.50;;;4.00;;
2858;SDS011;1437;53.250;10.406;2023-02-01T01:22:00;16.83;;;3.10;;
2858;SDS011;1437;53.250;10.406;2023-02-01T01:24:28;24.70;;;3.50;;
2858;SDS011;1437;53.250;10.406;2023-02-01T01:26:56;19.57;;;5.07;;
2858;SDS011;1437;53.250;10.406;2023-02-01T01:29:24;7.97;;;2.60;;
2858;SDS011;1437;53.250;10.406;2023-02-01T01:31:51;15.63;;;3.53;;
2858;SDS011;1437;53.250;10.406;2023-02-01T01:34:19;14.93;;;2.67;;
2858;SDS011;1437;53.250;10.406;2023-02-01T01:36:48;14.30;;;2.70;;
2858;SDS011;1437;53.250;10.406;2023-02-01T01:39:16;19.97;;;4.80;;
2858;SDS011;1437;53.250;10.406;2023-02-01T01:41:44;17.53;;;2.60;;
2858;SDS011;1437;53.250;10.406;2023-02-01T01:47:00;18.20;;;3.80;;
2858;SDS011;1437;53.250;10.406;2023-02-01T01:49:33;17.07;;;4.13;;
2858;SDS011;1437;53.250;10.406;2023-02-01T01:52:04;20.13;;;3.80;;
2858;SDS011;1437;53.250;10.406;2023-02-01T01:54:33;14.40;;;3.00;;
2858;SDS011;1437;53.250;10.406;2023-02-01T01:57:03;16.40;;;3.40;;
2858;SDS011;1437;53.250;10.406;2023-02-01T01:59:32;23.20;;;5.60;;
2858;SDS011;1437;53.250;10.406;2023-02-01T02:02:00;18.73;;;3.53;;
2858;SDS011;1437;53.250;10.406;2023-02-01T02:04:30;17.00;;;3.60;;
2858;SDS011;1437;53.250;10.406;2023-02-01T02:07:01;26.70;;;4.43;;
2858;SDS011;1437;53.250;10.406;2023-02-01T02:09:34;21.10;;;4.30;;
2858;SDS011;1437;53.250;10.406;2023-02-01T02:12:02;15.43;;;5.20;;
2858;SDS011;1437;53.250;10.406;2023-02-01T02:14:30;12.97;;;1.80;;
2858;SDS011;1437;53.250;10.406;2023-02-01T02:17:01;16.73;;;2.90;;
2858;SDS011;1437;53.250;10.406;2023-02-01T02:22:22;12.27;;;3.20;;
2858;SDS011;1437;53.250;10.406;2023-02-01T02:25:00;7.63;;;2.07;;
2858;SDS011;1437;53.250;10.406;2023-02-01T02:27:33;15.30;;;2.87;;
2858;SDS011;1437;53.250;10.406;2023-02-01T02:30:22;22.10;;;4.07;;
2858;SDS011;1437;53.250;10.406;2023-02-01T02:35:45;11.93;;;2.60;;
2858;SDS011;1437;53.250;10.406;2023-02-01T02:38:17;17.73;;;2.97;;
2858;SDS011;1437;53.250;10.406;2023-02-01T02:40:46;17.07;;;3.80;;
2858;SDS011;1437;53.250;10.406;2023-02-01T02:43:18;20.50;;;2.60;;
2858;SDS011;1437;53.250;10.406;2023-02-01T02:46:06;11.93;;;2.37;;
2858;SDS011;1437;53.250;10.406;2023-02-01T02:49:00;20.87;;;3.73;;
2858;SDS011;1437;53.250;10.406;2023-02-01T02:51:32;11.60;;;3.00;;
2858;SDS011;1437;53.250;10.406;2023-02-01T02:54:20;13.57;;;3.00;;
2858;SDS011;1437;53.250;10.406;2023-02-01T02:57:10;14.90;;;4.83;;
2858;SDS011;1437;53.250;10.406;2023-02-01T02:59:56;8.80;;;2.93;;
2858;SDS011;1437;53.250;10.406;2023-02-01T03:02:42;12.80;;;2.63;;
2858;SDS011;1437;53.250;10.406;2023-02-01T03:05:31;12.67;;;3.70;;
2858;SDS011;1437;53.250;10.406;2023-02-01T03:08:05;14.10;;;3.43;;
2858;SDS011;1437;53.250;10.406;2023-02-01T03:10:51;23.60;;;3.97;;
2858;SDS011;1437;53.250;10.406;2023-02-01T03:13:26;18.87;;;3.73;;
2858;SDS011;1437;53.250;10.406;2023-02-01T03:15:56;25.30;;;4.23;;
2858;SDS011;1437;53.250;10.406;2023-02-01T03:18:25;21.17;;;4.03;;
2858;SDS011;1437;53.250;10.406;2023-02-01T03:20:53;15.67;;;3.63;;
2858;SDS011;1437;53.250;10.406;2023-02-01T03:23:26;7.93;;;3.10;;
2858;SDS011;1437;53.250;10.406;2023-02-01T03:25:55;12.43;;;3.67;;
2858;SDS011;1437;53.250;10.406;2023-02-01T03:28:23;14.53;;;3.50;;
2858;SDS011;1437;53.250;10.406;2023-02-01T03:30:53;16.90;;;3.20;;
2858;SDS011;1437;53.250;10.406;2023-02-01T03:33:21;22.63;;;4.60;;
2858;SDS011;1437;53.250;10.406;2023-02-01T03:38:38;15.90;;;3.67;;
2858;SDS011;1437;53.250;10.406;2023-02-01T03:41:09;6.43;;;2.07;;
2858;SDS011;1437;53.250;10.406;2023-02-01T03:43:42;13.17;;;3.93;;
2858;SDS011;1437;53.250;10.406;2023-02-01T03:46:12;14.47;;;2.67;;
2858;SDS011;1437;53.250;10.406;2023-02-01T03:48:41;9.30;;;2.97;;
2858;SDS011;1437;53.250;10.406;2023-02-01T03:51:09;21.73;;;3.53;;
2858;SDS011;1437;53.250;10.406;2023-02-01T03:53:45;14.43;;;3.03;;
2858;SDS011;1437;53.250;10.406;2023-02-01T03:56:15;15.63;;;2.60;;
2858;SDS011;1437;53.250;10.406;2023-02-01T03:58:43;12.30;;;2.93;;
2858;SDS011;1437;53.250;10.406;2023-02-01T04:01:24;6.00;;;1.90;;
2858;SDS011;1437;53.250;10.406;2023-02-01T04:03:52;4.13;;;1.20;;
2858;SDS011;1437;53.250;10.406;2023-02-01T04:06:20;4.47;;;1.00;;
2858;SDS011;1437;53.250;10.406;2023-02-01T04:08:51;3.83;;;0.80;;
2858;SDS011;1437;53.250;10.406;2023-02-01T04:11:22;8.27;;;2.27;;
2858;SDS011;1437;53.250;10.406;2023-02-01T04:13:50;2.60;;;1.30;;
2858;SDS011;1437;53.250;10.406;2023-02-01T04:16:20;6.00;;;1.63;;
2858;SDS011;1437;53.250;10.406;2023-02-01T04:18:49;4.83;;;1.00;;
2858;SDS011;1437;53.250;10.406;2023-02-01T04:21:20;2.80;;;0.87;;
2858;SDS011;1437;53.250;10.406;2023-02-01T04:23:55;1.77;;;0.90;;
2858;SDS011;1437;53.250;10.406;2023-02-01T04:26:32;6.13;;;1.00;;
2858;SDS011;1437;53.250;10.406;2023-02-01T04:29:05;3.90;;;1.57;;
2858;SDS011;1437;53.250;10.406;2023-02-01T04:31:33;5.60;;;0.80;;
2858;SDS011;1437;53.250;10.406;2023-02-01T04:34:02;1.80;;;0.77;;
2858;SDS011;1437;53.250;10.406;2023-02-01T04:36:32;3.63;;;0.60;;
2858;SDS011;1437;53.250;10.406;2023-02-01T04:39:04;3.77;;;1.33;;
2858;SDS011;1437;53.250;10.406;2023-02-01T04:41:33;3.40;;;1.13;;
2858;SDS011;1437;53.250;10.406;2023-02-01T04:44:00;4.60;;;0.80;;
2858;SDS011;1437;53.250;10.406;2023-02-01T04:46:28;5.40;;;1.37;;
2858;SDS011;1437;53.250;10.406;2023-02-01T04:48:56;2.33;;;0.90;;
2858;SDS011;1437;53.250;10.406;2023-02-01T04:51:24;5.00;;;1.20;;
2858;SDS011;1437;53.250;10.406;2023-02-01T04:53:52;4.30;;;1.03;;
2858;SDS011;1437;53.250;10.406;2023-02-01T04:56:22;9.90;;;1.97;;
2858;SDS011;1437;53.250;10.406;2023-02-01T04:58:49;3.30;;;1.10;;
2858;SDS011;1437;53.250;10.406;2023-02-01T05:01:21;5.50;;;1.30;;
2858;SDS011;1437;53.250;10.406;2023-02-01T05:03:49;6.10;;;1.43;;
2858;SDS011;1437;53.250;10.406;2023-02-01T05:06:17;3.33;;;1.00;;
2858;SDS011;1437;53.250;10.406;2023-02-01T05:08:44;4.77;;;0.90;;
2858;SDS011;1437;53.250;10.406;2023-02-01T05:11:15;7.10;;;1.90;;
2858;SDS011;1437;53.250;10.406;2023-02-01T05:13:58;8.73;;;1.83;;
2858;SDS011;1437;53.250;10.406;2023-02-01T05:16:25;7.37;;;2.00;;
2858;SDS011;1437;53.250;10.406;2023-02-01T05:18:53;8.50;;;1.13;;
2858;SDS011;1437;53.250;10.406;2023-02-01T05:21:21;3.20;;;1.10;;
2858;SDS011;1437;53.250;10.406;2023-02-01T05:23:59;4.13;;;1.13;;
2858;SDS011;1437;53.250;10.406;2023-02-01T05:26:40;5.23;;;1.90;;
2858;SDS011;1437;53.250;10.406;2023-02-01T05:29:14;6.60;;;1.53;;
2858;SDS011;1437;53.250;10.406;2023-02-01T05:31:45;4.33;;;1.20;;
2858;SDS011;1437;53.250;10.406;2023-02-01T05:34:18;3.87;;;0.93;;
2858;SDS011;1437;53.250;10.406;2023-02-01T05:36:49;3.13;;;1.00;;
2858;SDS011;1437;53.250;10.406;2023-02-01T05:39:17;2.10;;;1.00;;
2858;SDS011;1437;53.250;10.406;2023-02-01T05:41:45;4.60;;;1.80;;
2858;SDS011;1437;53.250;10.406;2023-02-01T05:44:15;7.53;;;1.20;;
2858;SDS011;1437;53.250;10.406;2023-02-01T05:46:57;1.80;;;0.80;;
2858;SDS011;1437;53.250;10.406;2023-02-01T05:49:26;2.60;;;1.00;;
2858;SDS011;1437;53.250;10.406;2023-02-01T05:51:54;11.17;;;1.47;;
2858;SDS011;1437;53.250;10.406;2023-02-01T05:54:21;1.93;;;0.60;;
2858;SDS011;1437;53.250;10.406;2023-02-01T05:56:49;1.93;;;0.77;;
2858;SDS011;1437;53.250;10.406;2023-02-01T05:59:24;3.07;;;1.03;;
2858;SDS011;1437;53.250;10.406;2023-02-01T06:01:51;2.93;;;1.03;;
2858;SDS011;1437;53.250;10.406;2023-02-01T06:04:20;1.93;;;0.87;;
2858;SDS011;1437;53.250;10.406;2023-02-01T06:07:01;2.47;;;1.17;;
2858;SDS011;1437;53.250;10.406;2023-02-01T06:09:30;3.27;;;0.93;;
2858;SDS011;1437;53.250;10.406;2023-02-01T06:12:02;2.40;;;0.93;;
2858;SDS011;1437;53.250;10.406;2023-02-01T06:14:42;3.40;;;1.63;;
2858;SDS011;1437;53.250;10.406;2023-02-01T06:17:24;4.13;;;1.70;;
2858;SDS011;1437;53.250;10.406;2023-02-01T06:19:58;1.70;;;0.60;;
2858;SDS011;1437;53.250;10.406;2023-02-01T06:22:30;1.40;;;0.60;;
2858;SDS011;1437;53.250;10.406;2023-02-01T06:24:58;3.93;;;0.60;;
2858;SDS011;1437;53.250;10.406;2023-02-01T06:27:27;1.87;;;0.90;;
2858;SDS011;1437;53.250;10.406;2023-02-01T06:30:02;2.70;;;0.70;;
2858;SDS011;1437;53.250;10.406;2023-02-01T06:32:33;1.83;;;0.70;;
2858;SDS011;1437;53.250;10.406;2023-02-01T06:35:05;1.90;;;0.70;;
2858;SDS011;1437;53.250;10.406;2023-02-01T06:37:36;2.80;;;0.87;;
2858;SDS011;1437;53.250;10.406;2023-02-01T06:40:11;1.40;;;0.60;;
2858;SDS011;1437;53.250;10.406;2023-02-01T06:42:44;2.70;;;0.70;;
2858;SDS011;1437;53.250;10.406;2023-02-01T06:45:16;2.50;;;1.20;;
2858;SDS011;1437;53.250;10.406;2023-02-01T06:47:46;3.77;;;1.40;;
2858;SDS011;1437;53.250;10.406;2023-02-01T06:50:14;2.70;;;0.87;;
2858;SDS011;1437;53.250;10.406;2023-02-01T06:52:51;1.63;;;0.87;;
2858;SDS011;1437;53.250;10.406;2023-02-01T06:55:23;1.50;;;0.90;;
2858;SDS011;1437;53.250;10.406;2023-02-01T06:57:58;3.80;;;1.07;;
2858;SDS011;1437;53.250;10.406;2023-02-01T07:00:28;2.37;;;1.10;;
2858;SDS011;1437;53.250;10.406;2023-02-01T07:02:57;2.03;;;0.90;;
2858;SDS011;1437;53.250;10.406;2023-02-01T07:05:41;2.30;;;1.13;;
2858;SDS011;1437;53.250;10.406;2023-02-01T07:08:12;3.67;;;0.77;;
2858;SDS011;1437;53.250;10.406;2023-02-01T07:10:41;2.73;;;1.20;;
2858;SDS011;1437;53.250;10.406;2023-02-01T07:13:11;2.33;;;0.87;;
2858;SDS011;1437;53.250;10.406;2023-02-01T07:15:40;4.30;;;1.27;;
2858;SDS011;1437;53.250;10.406;2023-02-01T07:18:08;1.90;;;0.80;;
2858;SDS011;1437;53.250;10.406;2023-02-01T07:20:35;2.50;;;0.87;;
2858;SDS011;1437;53.250;10.406;2023-02-01T07:23:05;2.37;;;0.73;;
2858;SDS011;1437;53.250;10.406;2023-02-01T07:25:40;3.63;;;0.80;;
2858;SDS011;1437;53.250;10.406;2023-02-01T07:28:09;8.40;;;1.17;;
2858;SDS011;1437;53.250;10.406;2023-02-01T07:30:36;4.33;;;1.30;;
2858;SDS011;1437;53.250;10.406;2023-02-01T07:33:05;6.40;;;1.10;;
2858;SDS011;1437;53.250;10.406;2023-02-01T07:35:34;6.53;;;1.30;;
2858;SDS011;1437;53.250;10.406;2023-02-01T07:38:04;7.03;;;1.13;;
2858;SDS011;1437;53.250;10.406;2023-02-01T07:40:32;5.43;;;1.40;;
2858;SDS011;1437;53.250;10.406;2023-02-01T07:43:00;4.13;;;1.00;;
2858;SDS011;1437;53.250;10.406;2023-02-01T07:45:28;7.93;;;1.87;;
2858;SDS011;1437;53.250;10.406;2023-02-01T07:47:55;4.87;;;1.47;;
2858;SDS011;1437;53.250;10.406;2023-02-01T07:50:24;7.10;;;1.50;;
2858;SDS011;1437;53.250;10.406;2023-02-01T07:52:52;2.80;;;1.23;;
2858;SDS011;1437;53.250;10.406;2023-02-01T07:55:20;4.87;;;1.70;;
2858;SDS011;1437;53.250;10.406;2023-02-01T07:57:49;10.83;;;1.80;;
2858;SDS011;1437;53.250;10.406;2023-02-01T08:00:18;3.17;;;1.17;;
2858;SDS011;1437;53.250;10.406;2023-02-01T08:03:03;12.40;;;2.50;;
2858;SDS011;1437;53.250;10.406;2023-02-01T08:05:32;9.67;;;2.40;;
2858;SDS011;1437;53.250;10.406;2023-02-01T08:08:02;8.47;;;2.20;;
2858;SDS011;1437;53.250;10.406;2023-02-01T08:10:33;5.47;;;1.60;;
2858;SDS011;1437;53.250;10.406;2023-02-01T08:13:01;11.80;;;2.87;;
2858;SDS011;1437;53.250;10.406;2023-02-01T08:15:32;10.70;;;2.10;;
2858;SDS011;1437;53.250;10.406;2023-02-01T08:18:05;7.10;;;1.57;;
2858;SDS011;1437;53.250;10.406;2023-02-01T08:20:51;10.87;;;1.80;;
2858;SDS011;1437;53.250;10.406;2023-02-01T08:23:20;14.10;;;3.40;;
2858;SDS011;1437;53.250;10.406;2023-02-01T08:25:47;11.57;;;2.17;;
2858;SDS011;1437;53.250;10.406;2023-02-01T08:28:15;12.67;;;2.23;;
2858;SDS011;1437;53.250;10.406;2023-02-01T08:30:43;8.03;;;2.00;;
2858;SDS011;1437;53.250;10.406;2023-02-01T08:33:12;10.33;;;3.53;;
2858;SDS011;1437;53.250;10.406;2023-02-01T08:35:40;9.30;;;2.30;;
2858;SDS011;1437;53.250;10.406;2023-02-01T08:38:10;15.90;;;2.87;;
2858;SDS011;1437;53.250;10.406;2023-02-01T08:40:42;5.50;;;1.70;;
2858;SDS011;1437;53.250;10.406;2023-02-01T08:43:11;9.33;;;2.50;;
2858;SDS011;1437;53.250;10.406;2023-02-01T08:45:39;8.73;;;3.27;;
2858;SDS011;1437;53.250;10.406;2023-02-01T08:48:08;8.33;;;1.90;;
2858;SDS011;1437;53.250;10.406;2023-02-01T08:50:38;9.33;;;1.80;;
2858;SDS011;1437;53.250;10.406;2023-02-01T08:53:08;14.27;;;2.03;;
2858;SDS011;1437;53.250;10.406;2023-02-01T08:55:41;11.60;;;3.30;;
2858;SDS011;1437;53.250;10.406;2023-02-01T08:58:13;15.80;;;3.43;;
2858;SDS011;1437;53.250;10.406;2023-02-01T09:00:42;46.40;;;10.23;;
2858;SDS011;1437;53.250;10.406;2023-02-01T09:03:14;14.47;;;3.43;;
2858;SDS011;1437;53.250;10.406;2023-02-01T09:05:47;12.37;;;2.43;;
2858;SDS011;1437;53.250;10.406;2023-02-01T09:08:15;13.57;;;3.80;;
2858;SDS011;1437;53.250;10.406;2023-02-01T09:10:46;11.97;;;3.37;;
2858;SDS011;1437;53.250;10.406;2023-02-01T09:13:15;10.60;;;3.03;;
2858;SDS011;1437;53.250;10.406;2023-02-01T09:15:42;7.30;;;1.77;;
2858;SDS011;1437;53.250;10.406;2023-02-01T09:18:10;13.70;;;2.70;;
2858;SDS011;1437;53.250;10.406;2023-02-01T09:20:38;6.50;;;1.57;;
2858;SDS011;1437;53.250;10.406;2023-02-01T09:23:06;9.13;;;1.97;;
2858;SDS011;1437;53.250;10.406;2023-02-01T09:25:36;8.13;;;2.53;;
2858;SDS011;1437;53.250;10.406;2023-02-01T09:28:06;20.93;;;3.10;;
2858;SDS011;1437;53.250;10.406;2023-02-01T09:30:37;15.43;;;2.80;;
2858;SDS011;1437;53.250;10.406;2023-02-01T09:33:06;12.10;;;3.10;;
2858;SDS011;1437;53.250;10.406;2023-02-01T09:35:37;14.27;;;2.90;;
2858;SDS011;1437;53.250;10.406;2023-02-01T09:38:17;13.70;;;2.87;;
2858;SDS011;1437;53.250;10.406;2023-02-01T09:41:06;9.83;;;3.67;;
2858;SDS011;1437;53.250;10.406;2023-02-01T09:43:40;5.10;;;1.93;;
2858;SDS011;1437;53.250;10.406;2023-02-01T09:46:18;14.10;;;3.30;;
2858;SDS011;1437;53.250;10.406;2023-02-01T09:48:47;6.43;;;2.90;;
2858;SDS011;1437;53.250;10.406;2023-02-01T09:51:19;11.07;;;2.60;;
2858;SDS011;1437;53.250;10.406;2023-02-01T09:53:58;8.57;;;2.13;;
2858;SDS011;1437;53.250;10.406;2023-02-01T09:56:29;9.90;;;2.10;;
2858;SDS011;1437;53.250;10.406;2023-02-01T09:59:08;16.90;;;2.40;;
2858;SDS011;1437;53.250;10.406;2023-02-01T10:01:37;20.53;;;3.23;;
2858;SDS011;1437;53.250;10.406;2023-02-01T10:04:06;9.33;;;2.73;;
2858;SDS011;1437;53.250;10.406;2023-02-01T10:06:46;7.37;;;1.80;;
2858;SDS011;1437;53.250;10.406;2023-02-01T10:09:44;11.90;;;2.77;;
2858;SDS011;1437;53.250;10.406;2023-02-01T10:12:32;6.17;;;2.33;;
2858;SDS011;1437;53.250;10.406;2023-02-01T10:15:15;11.60;;;2.10;;
2858;SDS011;1437;53.250;10.406;2023-02-01T10:17:54;18.00;;;3.30;;
2858;SDS011;1437;53.250;10.406;2023-02-01T10:20:27;11.37;;;2.60;;
2858;SDS011;1437;53.250;10.406;2023-02-01T10:23:02;7.77;;;2.47;;
2858;SDS011;1437;53.250;10.406;2023-02-01T10:25:40;11.67;;;2.47;;
2858;SDS011;1437;53.250;10.406;2023-02-01T10:28:16;7.97;;;2.43;;
2858;SDS011;1437;53.250;10.406;2023-02-01T10:30:51;14.17;;;3.20;;
2858;SDS011;1437;53.250;10.406;2023-02-01T10:33:25;15.00;;;3.63;;
2858;SDS011;1437;53.250;10.406;2023-02-01T10:36:04;22.37;;;5.27;;
2858;SDS011;1437;53.250;10.406;2023-02-01T10:38:33;10.30;;;2.50;;
2858;SDS011;1437;53.250;10.406;2023-02-01T10:41:01;15.83;;;4.43;;
2858;SDS011;1437;53.250;10.406;2023-02-01T10:43:30;11.83;;;3.23;;
2858;SDS011;1437;53.250;10.406;2023-02-01T10:46:02;15.83;;;3.27;;
2858;SDS011;1437;53.250;10.406;2023-02-01T10:48:30;11.93;;;2.97;;
2858;SDS011;1437;53.250;10.406;2023-02-01T10:51:00;9.30;;;3.63;;
2858;SDS011;1437;53.250;10.406;2023-02-01T10:53:29;7.40;;;2.37;;
2858;SDS011;1437;53.250;10.406;2023-02-01T10:56:07;8.63;;;1.87;;
2858;SDS011;1437;53.250;10.406;2023-02-01T10:58:43;8.47;;;2.10;;
2858;SDS011;1437;53.250;10.406;2023-02-01T11:01:27;21.67;;;3.07;;
2858;SDS011;1437;53.250;10.406;2023-02-01T11:04:04;11.20;;;2.67;;
2858;SDS011;1437;53.250;10.406;2023-02-01T11:06:35;18.43;;;4.43;;
2858;SDS011;1437;53.250;10.406;2023-02-01T11:09:22;10.50;;;3.27;;
2858;SDS011;1437;53.250;10.406;2023-02-01T11:12:04;6.13;;;1.83;;
2858;SDS011;1437;53.250;10.406;2023-02-01T11:14:40;18.67;;;2.67;;
2858;SDS011;1437;53.250;10.406;2023-02-01T11:17:27;10.23;;;1.83;;
2858;SDS011;1437;53.250;10.406;2023-02-01T11:19:58;9.73;;;2.43;;
2858;SDS011;1437;53.250;10.406;2023-02-01T11:22:26;13.30;;;2.27;;
2858;SDS011;1437;53.250;10.406;2023-02-01T11:25:09;4.37;;;1.80;;
2858;SDS011;1437;53.250;10.406;2023-02-01T11:27:50;13.23;;;3.73;;
2858;SDS011;1437;53.250;10.406;2023-02-01T11:30:22;16.03;;;3.73;;
2858;SDS011;1437;53.250;10.406;2023-02-01T11:33:05;7.43;;;1.77;;
2858;SDS011;1437;53.250;10.406;2023-02-01T11:35:37;12.70;;;3.07;;
2858;SDS011;1437;53.250;10.406;2023-02-01T11:38:12;9.60;;;2.10;;
2858;SDS011;1437;53.250;10.406;2023-02-01T11:40:44;11.73;;;2.80;;
2858;SDS011;1437;53.250;10.406;2023-02-01T11:43:19;12.10;;;1.50;;
2858;SDS011;1437;53.250;10.406;2023-02-01T11:45:57;17.07;;;2.40;;
2858;SDS011;1437;53.250;10.406;2023-02-01T11:48:29;8.80;;;1.60;;
2858;SDS011;1437;53.250;10.406;2023-02-01T11:51:04;13.20;;;4.00;;
2858;SDS011;1437;53.250;10.406;2023-02-01T11:53:41;14.20;;;3.50;;
2858;SDS011;1437;53.250;10.406;2023-02-01T11:56:15;11.70;;;1.67;;
2858;SDS011;1437;53.250;10.406;2023-02-01T11:59:01;9.93;;;2.27;;
2858;SDS011;1437;53.250;10.406;2023-02-01T12:01:48;8.03;;;1.90;;
2858;SDS011;1437;53.250;10.406;2023-02-01T12:07:13;6.30;;;1.67;;
2858;SDS011;1437;53.250;10.406;2023-02-01T12:09:45;12.47;;;4.87;;
2858;SDS011;1437;53.250;10.406;2023-02-01T12:12:19;6.27;;;1.60;;
2858;SDS011;1437;53.250;10.406;2023-02-01T12:20:22;8.77;;;1.73;;
2858;SDS011;1437;53.250;10.406;2023-02-01T12:22:59;4.60;;;1.67;;
2858;SDS011;1437;53.250;10.406;2023-02-01T12:25:36;10.73;;;1.20;;
2858;SDS011;1437;53.250;10.406;2023-02-01T12:28:17;10.77;;;1.37;;
2858;SDS011;1437;53.250;10.406;2023-02-01T12:30:57;4.77;;;1.33;;
2858;SDS011;1437;53.250;10.406;2023-02-01T12:33:36;4.37;;;2.00;;
2858;SDS011;1437;53.250;10.406;2023-02-01T12:36:16;6.23;;;0.90;;
2858;SDS011;1437;53.250;10.406;2023-02-01T12:39:02;3.73;;;0.80;;
2858;SDS011;1437;53.250;10.406;2023-02-01T12:41:41;4.63;;;1.03;;
2858;SDS011;1437;53.250;10.406;2023-02-01T12:44:16;3.10;;;0.90;;
2858;SDS011;1437;53.250;10.406;2023-02-01T12:46:55;8.83;;;1.50;;
2858;SDS011;1437;53.250;10.406;2023-02-01T12:49:34;2.13;;;0.90;;
2858;SDS011;1437;53.250;10.406;2023-02-01T12:52:06;1.67;;;0.70;;
2858;SDS011;1437;53.250;10.406;2023-02-01T12:54:42;7.70;;;0.80;;
2858;SDS011;1437;53.250;10.406;2023-02-01T12:57:15;1.73;;;0.63;;
2858;SDS011;1437;53.250;10.406;2023-02-01T12:59:52;2.00;;;0.60;;
2858;SDS011;1437;53.250;10.406;2023-02-01T13:02:30;1.40;;;0.60;;
2858;SDS011;1437;53.250;10.406;2023-02-01T13:05:16;1.30;;;0.60;;
2858;SDS011;1437;53.250;10.406;2023-02-01T13:07:50;3.03;;;0.80;;
2858;SDS011;1437;53.250;10.406;2023-02-01T13:10:24;1.73;;;0.80;;
2858;SDS011;1437;53.250;10.406;2023-02-01T13:13:02;1.70;;;0.70;;
2858;SDS011;1437;53.250;10.406;2023-02-01T13:15:39;1.80;;;0.93;;
2858;SDS011;1437;53.250;10.406;2023-02-01T13:18:13;2.10;;;0.60;;
2858;SDS011;1437;53.250;10.406;2023-02-01T13:20:47;1.93;;;0.67;;
2858;SDS011;1437;53.250;10.406;2023-02-01T13:23:22;1.50;;;0.70;;
2858;SDS011;1437;53.250;10.406;2023-02-01T13:25:55;1.80;;;0.60;;
2858;SDS011;1437;53.250;10.406;2023-02-01T13:28:43;1.57;;;0.57;;
2858;SDS011;1437;53.250;10.406;2023-02-01T13:31:23;1.77;;;0.60;;
2858;SDS011;1437;53.250;10.406;2023-02-01T13:34:16;2.70;;;0.80;;
2858;SDS011;1437;53.250;10.406;2023-02-01T13:37:14;1.17;;;0.50;;
2858;SDS011;1437;53.250;10.406;2023-02-01T13:40:02;1.30;;;0.60;;
2858;SDS011;1437;53.250;10.406;2023-02-01T13:42:45;1.50;;;0.60;;
2858;SDS011;1437;53.250;10.406;2023-02-01T13:45:24;1.10;;;0.43;;
2858;SDS011;1437;53.250;10.406;2023-02-01T13:48:03;1.60;;;0.60;;
2858;SDS011;1437;53.250;10.406;2023-02-01T13:50:34;1.60;;;0.50;;
2858;SDS011;1437;53.250;10.406;2023-02-01T13:53:18;1.50;;;0.50;;
2858;SDS011;1437;53.250;10.406;2023-02-01T13:55:59;2.33;;;0.67;;
2858;SDS011;1437;53.250;10.406;2023-02-01T13:58:34;2.00;;;0.90;;
2858;SDS011;1437;53.250;10.406;2023-02-01T14:03:52;1.93;;;0.70;;
2858;SDS011;1437;53.250;10.406;2023-02-01T14:06:35;2.87;;;0.70;;
2858;SDS011;1437;53.250;10.406;2023-02-01T14:09:14;2.10;;;0.80;;
2858;SDS011;1437;53.250;10.406;2023-02-01T14:11:44;3.13;;;1.60;;
2858;SDS011;1437;53.250;10.406;2023-02-01T14:19:54;1.60;;;0.70;;
2858;SDS011;1437;53.250;10.406;2023-02-01T14:22:44;1.40;;;0.60;;
2858;SDS011;1437;53.250;10.406;2023-02-01T14:25:16;2.23;;;0.90;;
2858;SDS011;1437;53.250;10.406;2023-02-01T14:27:44;4.73;;;0.80;;
2858;SDS011;1437;53.250;10.406;2023-02-01T14:30:15;3.00;;;1.50;;
2858;SDS011;1437;53.250;10.406;2023-02-01T14:32:44;2.83;;;0.57;;
2858;SDS011;1437;53.250;10.406;2023-02-01T14:35:20;1.47;;;0.73;;
2858;SDS011;1437;53.250;10.406;2023-02-01T14:37:52;3.00;;;1.03;;
2858;SDS011;1437;53.250;10.406;2023-02-01T14:40:26;3.77;;;1.30;;
2858;SDS011;1437;53.250;10.406;2023-02-01T14:43:09;3.63;;;1.50;;
2858;SDS011;1437;53.250;10.406;2023-02-01T14:45:47;6.33;;;2.20;;
2858;SDS011;1437;53.250;10.406;2023-02-01T14:51:10;2.90;;;1.00;;
2858;SDS011;1437;53.250;10.406;2023-02-01T14:53:39;4.40;;;1.17;;
2858;SDS011;1437;53.250;10.406;2023-02-01T14:56:09;7.17;;;0.97;;
2858;SDS011;1437;53.250;10.406;2023-02-01T14:58:48;3.10;;;1.30;;
2858;SDS011;1437;53.250;10.406;2023-02-01T15:01:21;5.03;;;1.93;;
2858;SDS011;1437;53.250;10.406;2023-02-01T15:03:57;3.80;;;0.80;;
2858;SDS011;1437;53.250;10.406;2023-02-01T15:09:35;4.93;;;1.10;;
2858;SDS011;1437;53.250;10.406;2023-02-01T15:12:14;5.00;;;0.93;;
2858;SDS011;1437;53.250;10.406;2023-02-01T15:15:03;4.20;;;1.00;;
2858;SDS011;1437;53.250;10.406;2023-02-01T15:17:39;1.83;;;0.63;;
2858;SDS011;1437;53.250;10.406;2023-02-01T15:23:05;3.20;;;1.10;;
2858;SDS011;1437;53.250;10.406;2023-02-01T15:25:36;5.80;;;0.90;;
2858;SDS011;1437;53.250;10.406;2023-02-01T15:28:12;1.90;;;0.80;;
2858;SDS011;1437;53.250;10.406;2023-02-01T15:30:51;5.37;;;2.73;;
2858;SDS011;1437;53.250;10.406;2023-02-01T15:33:25;3.30;;;1.23;;
2858;SDS011;1437;53.250;10.406;2023-02-01T15:36:06;7.47;;;1.40;;
2858;SDS011;1437;53.250;10.406;2023-02-01T15:38:41;4.77;;;1.37;;
2858;SDS011;1437;53.250;10.406;2023-02-01T15:41:17;6.97;;;1.53;;
2858;SDS011;1437;53.250;10.406;2023-02-01T15:43:47;3.33;;;0.67;;
2858;SDS011;1437;53.250;10.406;2023-02-01T15:46:29;4.60;;;1.73;;
2858;SDS011;1437;53.250;10.406;2023-02-01T15:49:01;12.23;;;3.17;;
2858;SDS011;1437;53.250;10.406;2023-02-01T15:51:37;5.40;;;1.77;;
2858;SDS011;1437;53.250;10.406;2023-02-01T16:30:28;10.30;;;2.00;;
2858;SDS011;1437;53.250;10.406;2023-02-01T16:47:45;12.97;;;3.13;;
2858;SDS011;1437;53.250;10.406;2023-02-01T16:50:22;10.23;;;3.53;;
2858;SDS011;1437;53.250;10.406;2023-02-01T17:01:42;9.83;;;2.97;;
2858;SDS011;1437;53.250;10.406;2023-02-01T17:10:46;9.83;;;3.07;;
2858;SDS011;1437;53.250;10.406;2023-02-01T17:13:36;5.53;;;1.83;;